Airfield :
LOGIN :

Register | Disclaimer

   EN    FR    IT 

 










Legend :    VFR   Marginal VFR   IFR   Intensive IFR   Very Intensive IFR
Visi :
Ceiling :
>= 8 km
>= 3000ft
5 to 8 km
1000 to 3000 ft
1500m to 5 km
500 to 1000 ft
800 to 1500m
200 to 500 ft
< 800m
< 200 ft
Symbols :   Thunderstorms  Fog  Heavy snow  Heavy precipitations  Wind > 20 kt
SIGMETs :     Misc.  Thunderstorms  Icing  Turbulence  Mountain Waves  Volcanic Ashes






- Airport Elevation : 1276 ft
- IATA code : STR


EDDS - Stuttgart

CURRENT METAR :
  • 241150Z AUTO 24010KT 190V270 9999 SCT039 BKN048 08/M01 Q1004 NOSIG

EXPIRED METARs :
  • 241120Z AUTO 23010KT 180V260 CAVOK 07/M01 Q1004 NOSIG
  • 241050Z AUTO 22009KT 160V250 9999 FEW035 07/M01 Q1004 NOSIG
  • 241020Z AUTO 22010KT 170V260 9999 FEW029 07/M01 Q1003 NOSIG
  • 240950Z AUTO 22009KT 170V260 9999 SCT029 SCT036 07/00 Q1003 NOSIG
  • 240920Z AUTO 19011KT 9999 FEW026 06/01 Q1003 NOSIG
  • 240850Z AUTO 23008KT 110V270 CAVOK 06/01 Q1003 NOSIG
  • 240820Z AUTO 20009KT 160V260 9999 SCT046 04/00 Q1002 NOSIG
  • 240750Z AUTO 20007KT 180V240 9999 SCT030 04/01 Q1002 NOSIG
  • 240720Z AUTO 19008KT 9999 FEW032 03/01 Q1001 NOSIG
  • 240650Z AUTO 18007KT 9999 -RA BKN039 BKN046 03/00 Q1001 TEMPO SHRA

TAF TAF EDDS
Valid from the 24 at 12:00 until the 25 at 12:00 UTC


241100Z 2412/2512 22008KT 9999 SCT040
PROB30
TEMPO 2412/2417 SHRA BKN030TCU
BECMG 2417/2419 VRB03KT
BECMG 2508/2510 17005KT



MET'MAP, your aeronautical weather chart ! - Copyright ORBIFLY December 2007 - Disclaimer

ORBIFLY MET'MAP TEAM :

Programming & Development : Alexandra Zaïnal
Original concept : Baudouin d'Aumeries
Technical & hardware support : Manuel Goepfert
Assistance : Marc-Olivier Méhu




SOURCES & CREDITS :

   NOAA